CW8081 Thessaloniki GR current weather conditions

sailwx.info

Last reported at 2016-Jan-02 01:34 UTC.
Time now 2016-Feb-13 02:37 UTC

Location: N 40°34' E 022°58'.
View on Google Maps.

See reports from other nearby stations

  
Tides and Currents Weather Stations Pressure Air Temp Water Temp Dewpoint Dewpoint Depression Visibility Wind Speed Wind Dir Waves Ship Positions
date/time (UTC)wind fromknots sea level pressurealtimeterstation pressurevisibilityair tempwater tempwave heightnotes
2016-Feb-13 01:40 251 10.0
2016-Feb-13 01:30 251 10.0
2016-Feb-13 01:10 251 10.6
2016-Feb-13 01:01 251 10.6
2016-Feb-13 00:40 251 11.1
2016-Feb-13 00:30 251 11.1
2016-Feb-13 00:10 266 11.7
2016-Feb-13 00:00 266 11.7
2016-Feb-12 23:40 266 11.7
2016-Feb-12 23:31 266 11.7
2016-Feb-12 23:10 265 12.2
2016-Feb-12 23:01 265 12.2
2016-Feb-12 22:40 009 12.2
2016-Feb-12 22:30 009 12.2
2016-Feb-12 22:11 009 0 gusting 5 12.2
2016-Feb-12 22:01 005 2 gusting 5 12.2
2016-Feb-12 21:40 005 2 gusting 5 12.8
2016-Feb-12 21:31 009 4 gusting 10 12.8
2016-Feb-12 21:10 253 0 gusting 5 13.3
2016-Feb-12 21:01 240 13.3
2016-Feb-12 20:41 205 2 gusting 4 13.3
2016-Feb-12 20:31 143 2 gusting 5 13.3
2016-Feb-12 20:11 143 13.3
2016-Feb-12 20:00 142 13.3
2016-Feb-12 19:40 144 2 gusting 7 13.3
2016-Feb-12 19:31 117 2 gusting 6 13.3
2016-Feb-12 19:11 113 0 gusting 4 13.3
2016-Feb-12 19:00 151 0 gusting 7 13.3
2016-Feb-12 18:41 126 1 gusting 7 13.3
2016-Feb-12 18:30 136 4 gusting 10 13.3
2016-Feb-12 18:11 127 2 gusting 8 13.3
2016-Feb-12 18:01 142 2 gusting 6 13.3
2016-Feb-12 17:41 133 2 gusting 7 13.3
2016-Feb-12 17:31 129 2 gusting 8 13.3
2016-Feb-12 17:11 144 2 gusting 8 13.9
2016-Feb-12 17:01 149 3 gusting 11 13.9
2016-Feb-12 16:40 142 4 gusting 12 14.4
2016-Feb-12 16:31 132 5 gusting 17 14.4
2016-Feb-12 16:10 129 4 gusting 13 14.4
2016-Feb-12 16:01 151 3 gusting 17 14.4
2016-Feb-12 15:41 144 6 gusting 13 15.0
2016-Feb-12 15:30 144 5 gusting 13 15.0
2016-Feb-12 15:11 131 5 gusting 12 15.0
2016-Feb-12 15:01 101 6 gusting 13 15.0
2016-Feb-12 14:41 135 2 gusting 6 15.0
2016-Feb-12 14:31 136 2 gusting 8 15.0
2016-Feb-12 14:10 136 0 gusting 10 14.4
2016-Feb-12 14:01 210 13.9
2016-Feb-12 13:40 210 13.3
2016-Feb-12 13:30 210 13.3
2016-Feb-12 13:10 210 13.3
2016-Feb-12 13:01 210 0 gusting 6 13.3
2016-Feb-12 12:40 207 13.9
2016-Feb-12 12:30 207 14.4
2016-Feb-12 12:10 207 1 gusting 6 15.0
2016-Feb-12 12:00 203 4 gusting 6 15.6
2016-Feb-12 11:40 199 0 gusting 4 15.0
2016-Feb-12 11:30 199 1 gusting 4 14.4
2016-Feb-12 11:11 199 5 gusting 7 13.9
2016-Feb-12 11:01 204 6 gusting 8 15.0
2016-Feb-12 10:40 206 13.9
2016-Feb-12 10:30 221 4 gusting 7 13.3
2016-Feb-12 10:10 295 0 gusting 4 13.3
2016-Feb-12 10:01 296 12.8
2016-Feb-12 09:40 296 11.1
2016-Feb-12 09:30 296 10.0
2016-Feb-12 09:10 192 1 gusting 5 10.0
2016-Feb-12 09:00 178 2 gusting 5 9.4
2016-Feb-12 08:40 155 8.9
2016-Feb-12 08:31 155 8.3
2016-Feb-12 08:11 156 7.2
2016-Feb-12 08:01 156 7.2
2016-Feb-12 07:40 213 6.7
2016-Feb-12 07:30 213 6.7
2016-Feb-12 07:10 213 6.1
2016-Feb-12 07:01 213 6.1
2016-Feb-11 22:01 319 10.6
2016-Feb-11 21:41 161 11.1
2016-Feb-11 21:31 161 11.1
2016-Feb-11 21:11 161 11.7
2016-Feb-11 21:01 161 12.2
2016-Feb-11 20:41 161 12.2
2016-Feb-11 20:31 161 12.8
2016-Feb-11 20:11 161 12.8
2016-Feb-11 20:01 161 12.8
2016-Feb-11 19:40 161 12.8
2016-Feb-11 19:30 161 12.8
2016-Feb-11 19:10 161 12.8
2016-Feb-11 19:01 161 12.8
2016-Feb-11 18:41 161 12.8
2016-Feb-11 18:30 161 13.3
2016-Feb-11 18:10 171 13.3
2016-Feb-11 18:01 171 13.3
2016-Feb-11 17:40 171 13.3
2016-Feb-11 17:31 171 13.3
2016-Feb-11 17:11 171 13.3
2016-Feb-11 17:01 171 13.3
2016-Feb-11 16:41 171 13.9
2016-Feb-11 16:31 171 13.9
2016-Feb-11 16:11 171 13.9
2016-Feb-11 16:01 171 13.9
2016-Feb-11 15:41 171 13.9
2016-Feb-11 15:31 171 14.4
2016-Feb-11 15:11 171 15.0
2016-Feb-11 15:01 169 15.6
2016-Feb-11 14:41 047 15.6
2016-Feb-11 14:31 047 15.6
2016-Feb-11 14:11 046 3 gusting 6 15.6
2016-Feb-11 14:01 036 1 gusting 7 15.0
2016-Feb-11 13:41 036 1 gusting 7 15.6
2016-Feb-11 13:30 050 5 gusting 6 15.6
2016-Feb-11 13:10 221 15.6
2016-Feb-11 13:01 221 15.6
2016-Feb-11 12:41 221 15.6
2016-Feb-11 12:30 221 16.1
2016-Feb-11 12:10 221 0 gusting 6 16.7
2016-Feb-11 12:01 220 16.1
2016-Feb-11 11:40 217 4 gusting 7 16.7
2016-Feb-11 11:31 215 5 gusting 8 16.7
2016-Feb-11 11:10 229 5 gusting 7 16.1
2016-Feb-11 11:01 259 3 gusting 6 16.1
2016-Feb-11 10:41 192 3 gusting 7 15.6
2016-Feb-11 10:31 209 6 gusting 8 15.6
2016-Feb-11 10:11 220 0 gusting 6 15.0
2016-Feb-11 10:01 223 6 gusting 7 14.4
2016-Feb-11 09:40 248 4 gusting 6 14.4
2016-Feb-11 09:30 217 13.9
2016-Feb-11 09:10 224 4 gusting 7 13.3
2016-Feb-11 09:01 225 5 gusting 7 13.3
2016-Feb-11 08:41 263 2 gusting 5 12.8
2016-Feb-11 08:31 238 12.8
2016-Feb-11 08:11 280 4 gusting 6 12.8
2016-Feb-11 08:01 250 2 gusting 6 12.8
2016-Feb-11 07:40 327 12.2
2016-Feb-11 07:31 327 0 gusting 4 11.7
2016-Feb-11 07:11 011 1 gusting 6 11.1
2016-Feb-11 07:01 005 1 gusting 5 11.1
2016-Feb-11 06:40 016 4 gusting 6 11.1
2016-Feb-11 06:31 349 5 gusting 7 11.1
2016-Feb-11 06:11 298 5 gusting 7 10.0
2016-Feb-11 06:01 331 10.0
2016-Feb-11 05:41 325 10.0
2016-Feb-11 05:30 324 10.6
2016-Feb-11 05:11 323 10.6
2016-Feb-11 05:01 323 10.6
2016-Feb-11 04:41 336 10.0
2016-Feb-11 04:31 355 10.0
2016-Feb-11 04:10 355 10.6
2016-Feb-11 04:01 355 11.1
2016-Feb-11 03:41 355 11.7
2016-Feb-11 03:31 053 11.7
2016-Feb-11 03:11 257 2 gusting 8 11.1
2016-Feb-11 03:01 260 4 gusting 10 11.1
2016-Feb-11 02:41 331 11.1
2016-Feb-11 02:31 355 2 gusting 6 11.7
2016-Feb-11 02:10 324 1 gusting 6 11.7
2016-Feb-11 02:01 336 1 gusting 6 12.2